Hurricane, WV

7:30 AM EST on February 27, 2015 (GMT -0500)
KWVHURRI2 | Change Station
CLOSE
Current Station
Personal Weather Station
Location: Hurricane, WV
Elevation: 679 ft
Nearby Weather Stations
Active Advisory: Special Statement

Elev 679 ft 38.44 °N, 81.97 °W | Updated 31 seconds ago

Mostly Cloudy
Mostly Cloudy
12.5 °F
Feels Like 13 °F
N
2.0
Wind Variable Wind from North
Gusts 3.0 mph

Today
High -- | Low -- °F
--% Chance of Precip.
Yesterday
High -- | Low -- °F
Precip. -- in
7:03 AM 6:18 PM
Waxing Gibbous, 68% visible
Pressure 30.43 in
Visibility 4.0 miles
Clouds Scattered Clouds 1400 ft
Overcast 2100 ft
Windchill 13 °F
Dew Point 8 °F
Humidity 81%
Rainfall 0.00 in
Snow Depth Not available.
UV 0 out of 12
Pollen .60 out of 12
Air Quality Not available.
Flu Activity Not available.
SPECI KCRW 271210Z COR 33007KT 4SM -SN SCT014 OVC021 M11/M14 A3043 RMK AO2 PRESRR P0000 T11061144

More Conditions Fewer Conditions

Pressure 30.43 in
Visibility 4.0 miles
Clouds Scattered Clouds 1400 ft
Overcast 2100 ft
Windchill 13 °F
Dew Point 8 °F
Humidity 81%
Rainfall 0.00 in
Snow Depth Not available.
UV 0 out of 12
Pollen .60 out of 12
Air Quality Not available.
Flu Activity Not available.
SPECI KCRW 271210Z COR 33007KT 4SM -SN SCT014 OVC021 M11/M14 A3043 RMK AO2 PRESRR P0000 T11061144

More Conditions Fewer Conditions

10-Day Weather Forecast

Almanac

Astronomy

Feb. 27, 2015 Rise Set
Actual Time
Civil Twilight
Nautical Twilight
Astronomical Twilight
Moon
Length of Visible Light
Length of Day
Tomorrow will be .
, % of the Moon is Illuminated

Today's Extremes

State Highs State Lows

Community

WunderPhotos

Upload Photos

1,800,664 photos uploaded!

WunderBlogs® & News

Nearby

Air Quality

  Air Quality AQ Index Pollutant
Not available.

Snow Depth

Station Depth Elevation

Earthquake Activity

City Distance Mag. Time & Date
Minimum magnitude displayed is 2.5.

Coastal Water Temperatures

Place Temperature

Nearby Weather Stations

Special Statement
Statement as of 6:46 AM EST on February 27, 2015

Here is a Special Weather Statement from the National Weather
Service...

... Light snow this morning making for slick roads...

Light snow this morning has resulted in some snow covered and
slick roads... primarily on untreated secondary and residential
roads. The snow will taper off quickly from west to east by 9
am... with total accumulations around an inch. Locally higher
amounts are possible in the mountains. Motorists are urged to exercise
caution during the morning commute and allow extra time to reach
your destination.